createdAt,value
2018-11-03T00:01:24.994Z,10.38
2018-11-03T00:03:55.133Z,6.97
2018-11-03T00:06:25.057Z,7.30
2018-11-03T00:08:55.040Z,5.85
2018-11-03T00:11:25.049Z,5.45
2018-11-03T00:13:55.065Z,8.28
2018-11-03T00:16:25.091Z,6.75
2018-11-03T00:18:55.096Z,7.75
2018-11-03T00:21:25.060Z,5.55
2018-11-03T00:23:55.046Z,7.22
2018-11-03T00:26:25.980Z,5.95
2018-11-03T00:28:55.461Z,4.70
2018-11-03T00:31:25.140Z,6.65
2018-11-03T00:33:55.178Z,7.17
2018-11-03T00:36:25.141Z,8.35
2018-11-03T00:38:55.119Z,8.30
2018-11-03T00:41:25.075Z,8.80
2018-11-03T00:43:55.103Z,6.28
2018-11-03T00:46:25.236Z,8.10
2018-11-03T00:48:55.147Z,6.72
2018-11-03T00:51:25.185Z,7.20
2018-11-03T00:53:55.064Z,8.73
2018-11-03T00:56:25.082Z,7.40
2018-11-03T00:58:55.244Z,7.75
2018-11-03T01:01:25.149Z,9.10
2018-11-03T01:03:55.174Z,9.40
2018-11-03T01:06:25.218Z,9.30
2018-11-03T01:08:55.260Z,9.20
2018-11-03T01:11:25.117Z,11.30
2018-11-03T01:13:55.212Z,9.65
2018-11-03T01:16:25.205Z,8.70
2018-11-03T01:18:55.210Z,12.15
2018-11-03T01:21:25.283Z,9.78
2018-11-03T01:23:55.213Z,11.35
2018-11-03T01:26:25.264Z,10.05
2018-11-03T01:28:55.239Z,9.90
2018-11-03T01:31:25.595Z,11.83
2018-11-03T01:33:55.290Z,9.25
2018-11-03T01:36:25.364Z,11.88
2018-11-03T01:38:55.262Z,10.90
2018-11-03T01:41:25.279Z,9.98
2018-11-03T01:43:55.205Z,10.05
2018-11-03T01:46:25.260Z,11.75
2018-11-03T01:48:55.301Z,10.48
2018-11-03T01:51:25.282Z,11.05
2018-11-03T01:53:55.330Z,10.35
2018-11-03T01:56:25.456Z,14.30
2018-11-03T01:58:55.493Z,10.20
2018-11-03T02:01:25.304Z,11.28
2018-11-03T02:03:55.217Z,14.43
2018-11-03T02:06:28.953Z,10.98
2018-11-03T02:08:58.225Z,11.20
2018-11-03T02:11:27.536Z,9.93
2018-11-03T02:13:56.869Z,14.43
2018-11-03T02:16:26.232Z,12.70
2018-11-03T02:18:55.537Z,12.33
2018-11-03T02:21:25.324Z,10.50
2018-11-03T02:23:55.373Z,13.70
2018-11-03T02:26:25.374Z,12.47
2018-11-03T02:28:55.334Z,12.82
2018-11-03T02:31:26.309Z,12.73
2018-11-03T02:33:55.681Z,12.67
2018-11-03T02:36:25.450Z,9.93
2018-11-03T02:38:55.342Z,11.03
2018-11-03T02:41:25.408Z,10.98
2018-11-03T02:43:55.429Z,13.48
2018-11-03T02:46:25.363Z,13.37
2018-11-03T02:48:55.370Z,9.70
2018-11-03T02:51:25.527Z,10.35
2018-11-03T02:53:55.506Z,10.13
2018-11-03T02:56:25.598Z,12.03
2018-11-03T02:58:55.422Z,9.93
2018-11-03T03:01:29.215Z,10.63
2018-11-03T03:03:58.528Z,11.73
2018-11-03T03:06:27.852Z,9.27
2018-11-03T03:08:57.093Z,9.70
2018-11-03T03:11:26.472Z,10.75
2018-11-03T03:13:55.846Z,10.63
2018-11-03T03:16:25.478Z,10.40
2018-11-03T03:18:55.527Z,13.35
2018-11-03T03:21:25.601Z,11.08
2018-11-03T03:23:55.570Z,12.15
2018-11-03T03:26:25.503Z,11.80
2018-11-03T03:28:55.619Z,10.82
2018-11-03T03:31:25.505Z,10.95
2018-11-03T03:33:55.621Z,10.72
2018-11-03T03:36:25.636Z,10.38
2018-11-03T03:38:55.596Z,11.15
2018-11-03T03:41:25.639Z,11.57
2018-11-03T03:43:55.502Z,10.25
2018-11-03T03:46:25.620Z,13.80
2018-11-03T03:48:55.588Z,10.03
2018-11-03T03:51:25.626Z,10.00
2018-11-03T03:53:55.549Z,10.70
2018-11-03T03:56:25.554Z,10.60
2018-11-03T03:58:55.685Z,13.43
2018-11-03T04:01:25.572Z,10.68
2018-11-03T04:03:55.681Z,14.20
2018-11-03T04:06:25.656Z,11.78
2018-11-03T04:08:55.730Z,12.03
2018-11-03T04:11:25.625Z,11.67
2018-11-03T04:13:55.741Z,12.37
2018-11-03T04:16:25.718Z,12.18
2018-11-03T04:18:55.638Z,11.88
2018-11-03T04:21:29.864Z,13.22
2018-11-03T04:23:59.645Z,11.87
2018-11-03T04:26:30.867Z,12.55
2018-11-03T04:29:00.295Z,11.40
2018-11-03T04:31:29.633Z,12.13
2018-11-03T04:33:59.036Z,12.90
2018-11-03T04:36:28.330Z,16.53
2018-11-03T04:38:57.704Z,13.45
2018-11-03T04:41:27.063Z,12.47
2018-11-03T04:43:56.405Z,13.97
2018-11-03T04:46:25.785Z,13.00
2018-11-03T04:49:02.777Z,14.28
2018-11-03T04:51:33.547Z,13.43
2018-11-03T04:54:02.871Z,14.13
2018-11-03T04:56:32.224Z,14.70
2018-11-03T04:59:01.554Z,14.07
2018-11-03T05:01:30.912Z,15.03
2018-11-03T05:04:00.228Z,15.07
2018-11-03T05:06:29.559Z,12.83
2018-11-03T05:08:58.890Z,17.37
2018-11-03T05:11:28.221Z,14.03
2018-11-03T05:13:57.544Z,15.47
2018-11-03T05:16:26.854Z,14.40
2018-11-03T05:18:56.201Z,13.47
2018-11-03T05:21:25.844Z,13.78
2018-11-03T05:23:55.829Z,13.38
2018-11-03T05:26:25.837Z,16.32
2018-11-03T05:28:55.807Z,13.55
2018-11-03T05:31:26.036Z,14.95
2018-11-03T05:33:55.885Z,14.35
2018-11-03T05:36:25.866Z,13.58
2018-11-03T05:38:55.943Z,14.07
2018-11-03T05:41:25.848Z,14.07
2018-11-03T05:43:55.887Z,13.83
2018-11-03T05:46:25.939Z,13.53
2018-11-03T05:48:55.904Z,14.30
2018-11-03T05:51:25.952Z,14.25
2018-11-03T05:53:55.873Z,14.75
2018-11-03T05:56:25.860Z,15.15
2018-11-03T05:58:55.948Z,15.45
2018-11-03T06:01:26.157Z,16.12
2018-11-03T06:03:55.947Z,14.75
2018-11-03T06:06:26.039Z,16.42
2018-11-03T06:08:56.025Z,16.97
2018-11-03T06:11:25.993Z,16.77
2018-11-03T06:13:55.865Z,18.02
2018-11-03T06:16:25.917Z,14.87
2018-11-03T06:18:58.632Z,16.17
2018-11-03T06:21:27.969Z,15.13
2018-11-03T06:23:57.301Z,16.23
2018-11-03T06:26:26.616Z,17.87
2018-11-03T06:28:56.047Z,13.98
2018-11-03T06:31:25.965Z,16.95
2018-11-03T06:33:56.075Z,15.83
2018-11-03T06:36:27.130Z,15.08
2018-11-03T06:38:56.729Z,15.40
2018-11-03T06:41:26.116Z,17.85
2018-11-03T06:43:56.055Z,15.75
2018-11-03T06:46:26.112Z,15.63
2018-11-03T06:49:00.111Z,15.68
2018-11-03T06:51:29.538Z,15.43
2018-11-03T06:53:59.394Z,15.18
2018-11-03T06:56:28.735Z,15.97
2018-11-03T06:58:58.096Z,18.48
2018-11-03T07:01:27.483Z,17.27
2018-11-03T07:03:56.839Z,15.10
2018-11-03T07:06:26.193Z,17.97
2018-11-03T07:08:56.064Z,16.30
2018-11-03T07:11:26.246Z,15.40
2018-11-03T07:13:56.084Z,18.15
2018-11-03T07:16:26.039Z,17.35
2018-11-03T07:18:56.104Z,16.60
2018-11-03T07:21:26.161Z,17.23
2018-11-03T07:23:56.098Z,16.02
2018-11-03T07:26:26.122Z,17.65
2018-11-03T07:28:56.168Z,16.20
2018-11-03T07:31:26.162Z,17.95
2018-11-03T07:33:56.224Z,18.60
2018-11-03T07:36:26.205Z,17.90
2018-11-03T07:38:56.113Z,17.67
2018-11-03T07:41:26.159Z,19.65
2018-11-03T07:43:56.169Z,23.05
2018-11-03T07:46:26.185Z,17.12
2018-11-03T07:48:56.316Z,19.03
2018-11-03T07:51:26.214Z,19.02
2018-11-03T07:53:57.542Z,16.80
2018-11-03T07:56:26.875Z,17.83
2018-11-03T07:58:56.196Z,16.05
2018-11-03T08:01:26.208Z,17.50
2018-11-03T08:03:56.112Z,16.55
2018-11-03T08:06:26.268Z,17.40
2018-11-03T08:08:56.265Z,15.83
2018-11-03T08:11:26.158Z,17.95
2018-11-03T08:13:57.320Z,17.42
2018-11-03T08:16:26.616Z,16.93
2018-11-03T08:18:56.207Z,18.75
2018-11-03T08:21:26.261Z,17.52
2018-11-03T08:23:56.423Z,17.10
2018-11-03T08:26:26.207Z,19.20
2018-11-03T08:28:56.335Z,17.20
2018-11-03T08:31:26.237Z,17.10
2018-11-03T08:33:56.371Z,18.20
2018-11-03T08:36:26.290Z,17.10
2018-11-03T08:38:56.282Z,16.70
2018-11-03T08:41:26.338Z,16.15
2018-11-03T08:43:56.352Z,16.73
2018-11-03T08:46:26.283Z,15.85
2018-11-03T08:48:56.379Z,16.10
2018-11-03T08:51:26.369Z,15.75
2018-11-03T08:53:56.289Z,16.02
2018-11-03T08:56:26.349Z,15.20
2018-11-03T08:58:56.261Z,15.45
2018-11-03T09:01:26.243Z,15.32
2018-11-03T09:03:56.348Z,15.38
2018-11-03T09:06:26.372Z,15.32
2018-11-03T09:09:01.963Z,15.88
2018-11-03T09:11:31.240Z,15.80
2018-11-03T09:14:00.592Z,15.78
2018-11-03T09:16:29.949Z,16.20
2018-11-03T09:18:59.209Z,16.77
2018-11-03T09:21:28.586Z,14.27
2018-11-03T09:23:57.942Z,14.80
2018-11-03T09:26:27.246Z,14.20
2018-11-03T09:28:56.651Z,14.70
2018-11-03T09:31:26.420Z,14.10
2018-11-03T09:33:56.389Z,12.88
2018-11-03T09:36:26.545Z,13.13
2018-11-03T09:38:56.441Z,13.60
2018-11-03T09:41:26.454Z,14.78
2018-11-03T09:43:56.427Z,13.05
2018-11-03T09:46:26.453Z,13.87
2018-11-03T09:48:56.499Z,13.87
2018-11-03T09:51:26.488Z,13.78
2018-11-03T09:53:56.512Z,13.40
2018-11-03T09:56:26.525Z,12.90
2018-11-03T09:58:56.444Z,12.75
2018-11-03T10:01:26.508Z,13.13
2018-11-03T10:03:56.579Z,11.90
2018-11-03T10:06:26.493Z,12.60
2018-11-03T10:08:56.488Z,12.75
2018-11-03T10:11:26.450Z,12.33
2018-11-03T10:13:56.564Z,12.60
2018-11-03T10:16:26.545Z,12.25
2018-11-03T10:18:56.666Z,11.45
2018-11-03T10:21:26.572Z,12.28
2018-11-03T10:23:56.556Z,12.15
2018-11-03T10:26:26.555Z,14.33
2018-11-03T10:28:56.519Z,10.75
2018-11-03T10:31:26.621Z,12.93
2018-11-03T10:33:56.599Z,11.05
2018-11-03T10:36:26.619Z,9.83
2018-11-03T10:38:56.611Z,10.30
2018-11-03T10:41:26.487Z,12.93
2018-11-03T10:43:56.570Z,10.58
2018-11-03T10:46:26.580Z,11.48
2018-11-03T10:48:56.655Z,10.68
2018-11-03T10:51:26.624Z,9.03
2018-11-03T10:53:56.738Z,12.65
2018-11-03T10:56:26.557Z,9.10
2018-11-03T10:58:56.612Z,11.45
2018-11-03T11:01:31.820Z,9.43
2018-11-03T11:04:06.453Z,9.23
2018-11-03T11:06:40.957Z,8.53
2018-11-03T11:09:15.436Z,8.80
2018-11-03T11:11:50.234Z,9.10
2018-11-03T11:14:20.138Z,9.38
2018-11-03T11:16:49.400Z,7.67
2018-11-03T11:19:18.692Z,8.20
2018-11-03T11:21:48.023Z,10.03
2018-11-03T11:24:17.486Z,8.37
2018-11-03T11:26:46.722Z,10.30
2018-11-03T11:29:16.026Z,8.47
2018-11-03T11:31:45.429Z,9.00
2018-11-03T11:34:14.733Z,9.03
2018-11-03T11:36:44.998Z,8.13
2018-11-03T11:39:14.373Z,9.73
2018-11-03T11:41:43.751Z,7.93
2018-11-03T11:44:13.123Z,8.80
2018-11-03T11:46:42.481Z,10.55
2018-11-03T11:49:11.817Z,10.00
2018-11-03T11:51:41.189Z,8.57
2018-11-03T11:54:10.476Z,8.30
2018-11-03T11:56:40.004Z,7.03
2018-11-03T11:59:09.407Z,7.63
2018-11-03T12:01:39.087Z,8.87
2018-11-03T12:04:08.829Z,7.60
2018-11-03T12:06:38.274Z,7.87
2018-11-03T12:09:09.417Z,10.37
2018-11-03T12:11:38.780Z,7.00
2018-11-03T12:14:08.065Z,8.33
2018-11-03T12:16:37.419Z,7.43
2018-11-03T12:19:06.744Z,9.33
2018-11-03T12:21:36.069Z,7.47
2018-11-03T12:24:06.322Z,7.67
2018-11-03T12:26:35.667Z,7.53
2018-11-03T12:29:05.241Z,7.80
2018-11-03T12:31:39.213Z,10.07
2018-11-03T13:05:41.609Z,7.70
2018-11-03T13:08:17.462Z,6.63
2018-11-03T13:10:46.840Z,6.53
2018-11-03T13:13:16.193Z,7.97
2018-11-03T13:15:45.590Z,7.20
2018-11-03T13:18:14.899Z,9.27
2018-11-03T13:20:44.211Z,7.75
2018-11-03T13:23:13.551Z,6.73
2018-11-03T13:25:42.888Z,8.40
2018-11-03T13:28:12.229Z,6.33
2018-11-03T13:30:41.545Z,7.00
2018-11-03T13:33:10.883Z,7.73
2018-11-03T13:35:40.300Z,7.27
2018-11-03T13:38:09.704Z,6.33
2018-11-03T13:40:39.135Z,6.10
2018-11-03T13:43:08.479Z,5.87
2018-11-03T13:45:37.873Z,7.83
2018-11-03T13:48:07.255Z,8.23
2018-11-03T13:50:36.676Z,7.23
2018-11-03T13:53:06.101Z,7.10
2018-11-03T13:55:38.774Z,8.67
2018-11-03T13:58:08.077Z,8.80
2018-11-03T14:00:37.417Z,8.37
2018-11-03T14:03:06.803Z,6.27
2018-11-03T14:05:36.088Z,8.68
2018-11-03T14:08:05.698Z,8.57
2018-11-03T14:10:35.046Z,7.77
2018-11-03T14:13:04.542Z,6.40
2018-11-03T14:15:33.886Z,5.95
2018-11-03T14:18:03.187Z,8.05
2018-11-03T14:20:32.583Z,6.93
2018-11-03T14:23:01.849Z,6.12
2018-11-03T14:25:31.144Z,5.20
2018-11-03T14:28:00.602Z,7.03
2018-11-03T14:30:29.966Z,5.80
2018-11-03T14:32:59.278Z,6.20
2018-11-03T14:35:28.695Z,6.00
2018-11-03T14:37:58.008Z,7.03
2018-11-03T14:40:27.355Z,11.00
2018-11-03T14:42:56.793Z,5.23
2018-11-03T14:45:26.163Z,6.47
2018-11-03T14:47:55.494Z,5.95
2018-11-03T14:50:28.873Z,7.03
2018-11-03T14:52:58.202Z,16.33
2018-11-03T14:55:27.564Z,11.90
2018-11-03T14:57:56.882Z,14.30
2018-11-03T15:00:26.290Z,7.97
2018-11-03T15:02:55.598Z,8.93
2018-11-03T15:05:24.952Z,4.75
2018-11-03T15:07:54.340Z,8.60
2018-11-03T15:10:23.645Z,7.43
2018-11-03T15:12:52.987Z,4.30
2018-11-03T15:15:22.374Z,7.23
2018-11-03T15:17:51.748Z,6.77
2018-11-03T15:20:21.105Z,10.90
2018-11-03T15:22:50.473Z,6.90
2018-11-03T15:25:20.054Z,8.45
2018-11-03T15:27:50.149Z,7.65
2018-11-03T15:30:20.121Z,7.12
2018-11-03T15:32:50.169Z,12.78
2018-11-03T15:35:20.209Z,12.88
2018-11-03T15:37:50.211Z,10.72
2018-11-03T15:40:20.133Z,8.13
2018-11-03T15:42:50.124Z,10.70
2018-11-03T15:45:20.171Z,7.80
2018-11-03T15:47:50.295Z,8.15
2018-11-03T15:50:20.186Z,8.25
2018-11-03T15:52:50.023Z,9.45
2018-11-03T15:55:20.124Z,8.35
2018-11-03T15:57:50.161Z,9.63
2018-11-03T16:00:21.606Z,9.60
2018-11-03T16:02:50.942Z,6.97
2018-11-03T16:05:20.200Z,8.80
2018-11-03T16:07:50.290Z,10.88
2018-11-03T16:10:20.079Z,9.23
2018-11-03T16:12:50.191Z,10.30
2018-11-03T16:15:20.227Z,9.55
2018-11-03T16:17:50.198Z,10.03
2018-11-03T16:20:20.266Z,11.20
2018-11-03T16:22:50.347Z,10.08
2018-11-03T16:25:20.335Z,12.35
2018-11-03T16:27:50.278Z,8.58
2018-11-03T16:30:20.381Z,9.60
2018-11-03T16:32:50.328Z,10.08
2018-11-03T16:35:20.396Z,8.38
2018-11-03T16:37:50.308Z,8.50
2018-11-03T16:40:20.599Z,9.20
2018-11-03T16:42:50.380Z,10.15
2018-11-03T16:45:20.189Z,14.27
2018-11-03T16:47:50.314Z,19.20
2018-11-03T16:50:20.781Z,22.27
2018-11-03T16:52:50.298Z,21.48
2018-11-03T16:55:20.363Z,21.02
2018-11-03T16:57:50.318Z,23.73
2018-11-03T17:00:20.414Z,21.95
2018-11-03T17:02:50.444Z,20.40
2018-11-03T17:05:20.396Z,18.93
2018-11-03T17:07:50.516Z,18.27
2018-11-03T17:10:20.399Z,19.98
2018-11-03T17:12:50.569Z,14.13
2018-11-03T17:15:20.450Z,12.53
2018-11-03T17:17:50.593Z,14.23
2018-11-03T17:20:20.478Z,10.53
2018-11-03T17:22:50.548Z,11.20
2018-11-03T17:25:20.572Z,12.40
2018-11-03T17:27:50.519Z,12.47
2018-11-03T17:30:20.575Z,11.08
2018-11-03T17:32:50.640Z,10.72
2018-11-03T17:35:20.572Z,12.23
2018-11-03T17:37:50.519Z,10.93
2018-11-03T17:40:20.555Z,13.43
2018-11-03T17:42:50.561Z,13.13
2018-11-03T17:45:20.554Z,12.58
2018-11-03T17:47:50.521Z,14.17
2018-11-03T17:50:20.552Z,14.28
2018-11-03T17:52:50.541Z,12.78
2018-11-03T17:55:20.487Z,13.00
2018-11-03T17:57:50.515Z,15.85
2018-11-03T18:00:20.789Z,18.85
2018-11-03T18:02:50.553Z,17.77
2018-11-03T18:05:20.618Z,16.77
2018-11-03T18:07:50.486Z,20.92
2018-11-03T18:10:20.661Z,20.00
2018-11-03T18:12:50.647Z,17.23
2018-11-03T18:15:20.538Z,20.62
2018-11-03T18:17:50.674Z,22.05
2018-11-03T18:20:20.638Z,22.87
2018-11-03T18:22:50.625Z,21.97
2018-11-03T18:25:22.300Z,18.62
2018-11-03T18:27:51.589Z,19.00
2018-11-03T18:30:20.945Z,19.07
2018-11-03T18:32:50.821Z,19.17
2018-11-03T18:35:20.583Z,16.67
2018-11-03T18:37:50.780Z,23.62
2018-11-03T18:40:20.699Z,20.80
2018-11-03T18:42:50.622Z,19.12
2018-11-03T18:45:20.726Z,18.05
2018-11-03T18:47:50.612Z,15.10
2018-11-03T18:50:20.672Z,17.73
2018-11-03T18:52:50.745Z,21.77
2018-11-03T18:55:20.632Z,31.33
2018-11-03T18:57:50.677Z,118.95
2018-11-03T19:00:20.658Z,129.95
2018-11-03T19:02:50.699Z,105.70
2018-11-03T19:05:20.701Z,76.12
2018-11-03T19:07:50.758Z,50.00
2018-11-03T19:10:27.436Z,40.23
2018-11-03T19:12:56.732Z,34.33
2018-11-03T19:15:26.057Z,34.90
2018-11-03T19:17:55.354Z,27.87
2018-11-03T19:20:24.760Z,29.02
2018-11-03T19:22:54.347Z,25.27
2018-11-03T19:25:23.757Z,24.85
2018-11-03T19:27:53.183Z,22.27
2018-11-03T19:30:22.580Z,20.07
2018-11-03T19:32:51.948Z,17.60
2018-11-03T19:35:21.288Z,17.13
2018-11-03T19:37:50.834Z,17.32
2018-11-03T19:40:20.825Z,17.25
2018-11-03T19:42:50.854Z,15.88
2018-11-03T19:45:20.978Z,13.78
2018-11-03T19:47:51.084Z,17.70
2018-11-03T19:50:20.849Z,14.40
2018-11-03T19:52:50.817Z,13.53
2018-11-03T19:55:21.080Z,15.85
2018-11-03T19:57:50.881Z,11.88
2018-11-03T20:00:27.728Z,13.62
2018-11-03T20:02:57.063Z,12.23
2018-11-03T20:05:26.339Z,11.93
2018-11-03T20:07:55.714Z,14.15
2018-11-03T20:10:25.027Z,13.03
2018-11-03T20:12:54.430Z,15.20
2018-11-03T20:15:23.770Z,15.43
2018-11-03T20:17:53.252Z,15.83
2018-11-03T20:20:22.558Z,14.63
2018-11-03T20:22:51.827Z,18.23
2018-11-03T20:25:21.223Z,16.27
2018-11-03T20:27:50.915Z,17.02
2018-11-03T20:30:20.910Z,16.95
2018-11-03T20:32:50.939Z,15.80
2018-11-03T20:35:20.820Z,14.33
2018-11-03T20:37:52.735Z,14.90
2018-11-03T20:40:22.008Z,14.53
2018-11-03T20:42:51.342Z,14.23
2018-11-03T20:45:20.943Z,16.10
2018-11-03T20:47:50.948Z,15.80
2018-11-03T20:50:20.880Z,14.23
2018-11-03T20:52:50.916Z,13.70
2018-11-03T20:55:20.866Z,15.30
2018-11-03T20:57:50.954Z,14.07
2018-11-03T21:00:20.975Z,13.65
2018-11-03T21:02:50.870Z,15.72
2018-11-03T21:05:20.897Z,17.42
2018-11-03T21:07:51.021Z,19.32
2018-11-03T21:10:20.872Z,19.15
2018-11-03T21:12:50.979Z,19.20
2018-11-03T21:15:20.961Z,20.65
2018-11-03T21:17:51.067Z,15.63
2018-11-03T21:20:20.958Z,17.98
2018-11-03T21:22:50.981Z,19.75
2018-11-03T21:25:21.101Z,19.98
2018-11-03T21:27:50.897Z,18.82
2018-11-03T21:30:20.978Z,18.80
2018-11-03T21:32:51.147Z,16.77
2018-11-03T21:35:20.923Z,15.40
2018-11-03T21:37:51.030Z,14.87
2018-11-03T21:40:21.054Z,16.82
2018-11-03T21:42:51.156Z,15.10
2018-11-03T21:45:21.003Z,17.90
2018-11-03T21:47:51.085Z,15.03
2018-11-03T21:50:21.075Z,12.73
2018-11-03T21:52:51.034Z,12.58
2018-11-03T21:55:20.947Z,15.95
2018-11-03T21:57:51.104Z,14.47
2018-11-03T22:00:21.155Z,12.73
2018-11-03T22:02:51.002Z,14.00
2018-11-03T22:05:21.077Z,13.45
2018-11-03T22:07:51.047Z,13.78
2018-11-03T22:10:21.297Z,14.97
2018-11-03T22:12:51.030Z,20.10
2018-11-03T22:15:21.059Z,14.60
2018-11-03T22:17:51.108Z,14.60
2018-11-03T22:20:21.059Z,16.87
2018-11-03T22:22:51.178Z,14.87
2018-11-03T22:25:21.182Z,17.07
2018-11-03T22:27:51.122Z,16.30
2018-11-03T22:30:21.255Z,17.85
2018-11-03T22:32:51.081Z,14.63
2018-11-03T22:35:21.223Z,14.90
2018-11-03T22:37:51.101Z,15.35
2018-11-03T22:40:21.209Z,14.30
2018-11-03T22:42:51.287Z,12.37
2018-11-03T22:45:21.312Z,14.90
2018-11-03T22:47:51.461Z,14.28
2018-11-03T22:50:21.252Z,13.13
2018-11-03T22:52:51.585Z,11.33
2018-11-03T22:55:21.312Z,13.28
2018-11-03T22:57:51.333Z,14.90
2018-11-03T23:00:21.385Z,13.65
2018-11-03T23:02:51.444Z,18.52
2018-11-03T23:05:21.376Z,16.42
2018-11-03T23:07:52.957Z,22.52
2018-11-03T23:10:22.250Z,19.07
2018-11-03T23:12:51.595Z,25.17
2018-11-03T23:15:21.420Z,27.35
2018-11-03T23:17:51.284Z,23.02
2018-11-03T23:20:21.350Z,22.83
2018-11-03T23:22:51.325Z,19.23
2018-11-03T23:25:21.337Z,19.30
2018-11-03T23:27:51.439Z,19.85
2018-11-03T23:30:21.455Z,18.50
2018-11-03T23:32:51.454Z,18.25
2018-11-03T23:35:21.518Z,17.50
2018-11-03T23:37:51.653Z,20.50
2018-11-03T23:40:21.455Z,17.35
2018-11-03T23:42:51.493Z,21.68
2018-11-03T23:45:21.463Z,21.10
2018-11-03T23:47:51.442Z,22.87
2018-11-03T23:50:21.493Z,22.77
2018-11-03T23:52:51.491Z,21.35
2018-11-03T23:55:21.471Z,20.02
2018-11-03T23:57:52.421Z,18.70
